sensor_id;sensor_type;location;lat;lon;timestamp;temperature;humidity
23147;DHT22;11742;53.532;-1.478;2023-08-20T00:01:32;23.00;78.00
23147;DHT22;11742;53.532;-1.478;2023-08-20T00:04:17;23.00;78.00
23147;DHT22;11742;53.532;-1.478;2023-08-20T00:07:02;22.90;78.00
23147;DHT22;11742;53.532;-1.478;2023-08-20T00:09:47;22.90;78.00
23147;DHT22;11742;53.532;-1.478;2023-08-20T00:12:31;22.90;78.00
23147;DHT22;11742;53.532;-1.478;2023-08-20T00:15:15;22.90;78.10
23147;DHT22;11742;53.532;-1.478;2023-08-20T00:17:59;22.80;78.10
23147;DHT22;11742;53.532;-1.478;2023-08-20T00:20:44;22.70;78.00
23147;DHT22;11742;53.532;-1.478;2023-08-20T00:23:29;22.70;78.20
23147;DHT22;11742;53.532;-1.478;2023-08-20T00:26:14;22.70;78.10
23147;DHT22;11742;53.532;-1.478;2023-08-20T00:28:59;22.70;78.20
23147;DHT22;11742;53.532;-1.478;2023-08-20T00:31:43;22.70;78.20
23147;DHT22;11742;53.532;-1.478;2023-08-20T00:34:27;22.60;78.20
23147;DHT22;11742;53.532;-1.478;2023-08-20T00:37:11;22.60;78.30
23147;DHT22;11742;53.532;-1.478;2023-08-20T00:39:56;22.60;78.40
23147;DHT22;11742;53.532;-1.478;2023-08-20T00:42:42;22.60;78.40
23147;DHT22;11742;53.532;-1.478;2023-08-20T00:45:26;22.60;78.50
23147;DHT22;11742;53.532;-1.478;2023-08-20T00:48:11;22.50;78.50
23147;DHT22;11742;53.532;-1.478;2023-08-20T00:50:56;22.50;78.60
23147;DHT22;11742;53.532;-1.478;2023-08-20T00:53:41;22.50;78.60
23147;DHT22;11742;53.532;-1.478;2023-08-20T00:56:25;22.50;78.60
23147;DHT22;11742;53.532;-1.478;2023-08-20T00:59:10;22.40;78.60
23147;DHT22;11742;53.532;-1.478;2023-08-20T01:01:55;22.40;78.70
23147;DHT22;11742;53.532;-1.478;2023-08-20T01:04:39;22.40;78.70
23147;DHT22;11742;53.532;-1.478;2023-08-20T01:08:00;22.40;78.80
23147;DHT22;11742;53.532;-1.478;2023-08-20T01:11:01;22.30;78.80
23147;DHT22;11742;53.532;-1.478;2023-08-20T01:13:46;22.30;78.90
23147;DHT22;11742;53.532;-1.478;2023-08-20T01:16:30;22.30;78.90
23147;DHT22;11742;53.532;-1.478;2023-08-20T01:19:17;22.30;79.00
23147;DHT22;11742;53.532;-1.478;2023-08-20T01:25:11;22.20;79.10
23147;DHT22;11742;53.532;-1.478;2023-08-20T01:30:50;22.20;79.10
23147;DHT22;11742;53.532;-1.478;2023-08-20T01:33:35;22.10;79.10
23147;DHT22;11742;53.532;-1.478;2023-08-20T01:36:20;22.10;79.20
23147;DHT22;11742;53.532;-1.478;2023-08-20T01:39:04;22.10;79.20
23147;DHT22;11742;53.532;-1.478;2023-08-20T01:41:49;22.10;79.30
23147;DHT22;11742;53.532;-1.478;2023-08-20T01:44:33;22.10;79.20
23147;DHT22;11742;53.532;-1.478;2023-08-20T01:47:17;22.00;79.20
23147;DHT22;11742;53.532;-1.478;2023-08-20T01:50:03;22.00;79.30
23147;DHT22;11742;53.532;-1.478;2023-08-20T01:52:48;22.00;79.40
23147;DHT22;11742;53.532;-1.478;2023-08-20T01:55:32;22.00;79.40
23147;DHT22;11742;53.532;-1.478;2023-08-20T01:58:16;21.90;79.40
23147;DHT22;11742;53.532;-1.478;2023-08-20T02:01:00;21.90;79.50
23147;DHT22;11742;53.532;-1.478;2023-08-20T02:03:44;21.90;79.50
23147;DHT22;11742;53.532;-1.478;2023-08-20T02:06:28;21.90;79.50
23147;DHT22;11742;53.532;-1.478;2023-08-20T02:09:12;21.80;79.50
23147;DHT22;11742;53.532;-1.478;2023-08-20T02:11:56;21.80;79.60
23147;DHT22;11742;53.532;-1.478;2023-08-20T02:14:40;21.80;79.60
23147;DHT22;11742;53.532;-1.478;2023-08-20T02:17:24;21.80;79.70
23147;DHT22;11742;53.532;-1.478;2023-08-20T02:20:09;21.80;79.70
23147;DHT22;11742;53.532;-1.478;2023-08-20T02:22:56;21.80;79.70
23147;DHT22;11742;53.532;-1.478;2023-08-20T02:25:41;21.70;79.70
23147;DHT22;11742;53.532;-1.478;2023-08-20T02:28:25;21.70;79.70
23147;DHT22;11742;53.532;-1.478;2023-08-20T02:31:09;21.70;79.70
23147;DHT22;11742;53.532;-1.478;2023-08-20T02:33:53;21.70;79.70
23147;DHT22;11742;53.532;-1.478;2023-08-20T02:36:37;21.60;79.80
23147;DHT22;11742;53.532;-1.478;2023-08-20T02:39:21;21.60;79.80
23147;DHT22;11742;53.532;-1.478;2023-08-20T02:42:05;21.60;79.90
23147;DHT22;11742;53.532;-1.478;2023-08-20T02:44:49;21.60;79.90
23147;DHT22;11742;53.532;-1.478;2023-08-20T02:47:33;21.60;80.00
23147;DHT22;11742;53.532;-1.478;2023-08-20T02:50:17;21.60;80.00
23147;DHT22;11742;53.532;-1.478;2023-08-20T02:53:01;21.50;80.00
23147;DHT22;11742;53.532;-1.478;2023-08-20T02:55:45;21.50;80.00
23147;DHT22;11742;53.532;-1.478;2023-08-20T02:58:30;21.60;80.10
23147;DHT22;11742;53.532;-1.478;2023-08-20T03:01:21;21.50;80.10
23147;DHT22;11742;53.532;-1.478;2023-08-20T03:04:06;21.50;80.10
23147;DHT22;11742;53.532;-1.478;2023-08-20T03:06:50;21.40;80.20
23147;DHT22;11742;53.532;-1.478;2023-08-20T03:09:34;21.40;80.10
23147;DHT22;11742;53.532;-1.478;2023-08-20T03:12:18;21.40;80.20
23147;DHT22;11742;53.532;-1.478;2023-08-20T03:15:02;21.40;80.30
23147;DHT22;11742;53.532;-1.478;2023-08-20T03:17:47;21.40;80.30
23147;DHT22;11742;53.532;-1.478;2023-08-20T03:20:31;21.40;80.30
23147;DHT22;11742;53.532;-1.478;2023-08-20T03:23:15;21.40;80.30
23147;DHT22;11742;53.532;-1.478;2023-08-20T03:25:59;21.30;80.30
23147;DHT22;11742;53.532;-1.478;2023-08-20T03:28:44;21.30;80.30
23147;DHT22;11742;53.532;-1.478;2023-08-20T03:31:28;21.30;80.40
23147;DHT22;11742;53.532;-1.478;2023-08-20T03:34:13;21.30;80.40
23147;DHT22;11742;53.532;-1.478;2023-08-20T03:36:57;21.30;80.40
23147;DHT22;11742;53.532;-1.478;2023-08-20T03:39:41;21.30;80.50
23147;DHT22;11742;53.532;-1.478;2023-08-20T03:42:25;21.20;80.40
23147;DHT22;11742;53.532;-1.478;2023-08-20T03:45:09;21.30;80.60
23147;DHT22;11742;53.532;-1.478;2023-08-20T03:47:54;21.30;80.70
23147;DHT22;11742;53.532;-1.478;2023-08-20T03:50:38;21.20;80.50
23147;DHT22;11742;53.532;-1.478;2023-08-20T03:53:22;21.20;80.60
23147;DHT22;11742;53.532;-1.478;2023-08-20T03:56:06;21.20;80.60
23147;DHT22;11742;53.532;-1.478;2023-08-20T03:58:50;21.20;80.60
23147;DHT22;11742;53.532;-1.478;2023-08-20T04:01:34;21.20;80.60
23147;DHT22;11742;53.532;-1.478;2023-08-20T04:04:21;21.20;80.60
23147;DHT22;11742;53.532;-1.478;2023-08-20T04:07:05;21.20;80.70
23147;DHT22;11742;53.532;-1.478;2023-08-20T04:09:49;21.10;80.60
23147;DHT22;11742;53.532;-1.478;2023-08-20T04:12:33;21.10;80.70
23147;DHT22;11742;53.532;-1.478;2023-08-20T04:15:17;21.10;80.80
23147;DHT22;11742;53.532;-1.478;2023-08-20T04:18:02;21.10;80.80
23147;DHT22;11742;53.532;-1.478;2023-08-20T04:20:46;21.10;80.80
23147;DHT22;11742;53.532;-1.478;2023-08-20T04:23:30;21.00;80.80
23147;DHT22;11742;53.532;-1.478;2023-08-20T04:26:14;21.00;80.80
23147;DHT22;11742;53.532;-1.478;2023-08-20T04:28:59;21.00;80.80
23147;DHT22;11742;53.532;-1.478;2023-08-20T04:31:44;21.00;80.90
23147;DHT22;11742;53.532;-1.478;2023-08-20T04:34:29;21.00;80.80
23147;DHT22;11742;53.532;-1.478;2023-08-20T04:37:13;21.00;81.00
23147;DHT22;11742;53.532;-1.478;2023-08-20T04:39:57;21.00;81.00
23147;DHT22;11742;53.532;-1.478;2023-08-20T04:42:41;20.90;80.90
23147;DHT22;11742;53.532;-1.478;2023-08-20T04:45:26;21.00;81.00
23147;DHT22;11742;53.532;-1.478;2023-08-20T04:48:10;20.90;81.00
23147;DHT22;11742;53.532;-1.478;2023-08-20T04:50:54;20.90;81.10
23147;DHT22;11742;53.532;-1.478;2023-08-20T04:53:38;20.90;81.10
23147;DHT22;11742;53.532;-1.478;2023-08-20T04:56:22;20.90;81.20
23147;DHT22;11742;53.532;-1.478;2023-08-20T04:59:06;20.90;81.20
23147;DHT22;11742;53.532;-1.478;2023-08-20T05:01:50;20.90;81.30
23147;DHT22;11742;53.532;-1.478;2023-08-20T05:04:34;20.90;81.20
23147;DHT22;11742;53.532;-1.478;2023-08-20T05:07:18;20.80;81.20
23147;DHT22;11742;53.532;-1.478;2023-08-20T05:10:02;20.80;81.30
23147;DHT22;11742;53.532;-1.478;2023-08-20T05:12:46;20.80;81.30
23147;DHT22;11742;53.532;-1.478;2023-08-20T05:15:31;20.80;81.40
23147;DHT22;11742;53.532;-1.478;2023-08-20T05:18:15;20.80;81.40
23147;DHT22;11742;53.532;-1.478;2023-08-20T05:20:59;20.70;81.40
23147;DHT22;11742;53.532;-1.478;2023-08-20T05:23:43;20.70;81.50
23147;DHT22;11742;53.532;-1.478;2023-08-20T05:26:27;20.70;81.50
23147;DHT22;11742;53.532;-1.478;2023-08-20T05:29:11;20.70;81.60
23147;DHT22;11742;53.532;-1.478;2023-08-20T05:31:55;20.70;81.60
23147;DHT22;11742;53.532;-1.478;2023-08-20T05:34:39;20.70;81.70
23147;DHT22;11742;53.532;-1.478;2023-08-20T05:37:23;20.70;81.70
23147;DHT22;11742;53.532;-1.478;2023-08-20T05:40:08;20.60;81.70
23147;DHT22;11742;53.532;-1.478;2023-08-20T05:42:52;20.60;81.80
23147;DHT22;11742;53.532;-1.478;2023-08-20T05:45:36;20.60;81.80
23147;DHT22;11742;53.532;-1.478;2023-08-20T05:48:21;20.60;81.90
23147;DHT22;11742;53.532;-1.478;2023-08-20T05:51:05;20.60;81.90
23147;DHT22;11742;53.532;-1.478;2023-08-20T05:53:49;20.60;82.00
23147;DHT22;11742;53.532;-1.478;2023-08-20T05:56:33;20.60;82.10
23147;DHT22;11742;53.532;-1.478;2023-08-20T05:59:17;20.60;82.20
23147;DHT22;11742;53.532;-1.478;2023-08-20T06:02:02;20.60;82.30
23147;DHT22;11742;53.532;-1.478;2023-08-20T06:04:47;20.60;82.30
23147;DHT22;11742;53.532;-1.478;2023-08-20T06:07:31;20.50;82.30
23147;DHT22;11742;53.532;-1.478;2023-08-20T06:10:15;20.60;82.40
23147;DHT22;11742;53.532;-1.478;2023-08-20T06:13:00;20.50;82.40
23147;DHT22;11742;53.532;-1.478;2023-08-20T06:15:44;20.50;82.50
23147;DHT22;11742;53.532;-1.478;2023-08-20T06:18:28;20.50;82.70
23147;DHT22;11742;53.532;-1.478;2023-08-20T06:21:12;20.50;82.80
23147;DHT22;11742;53.532;-1.478;2023-08-20T06:23:57;20.50;82.90
23147;DHT22;11742;53.532;-1.478;2023-08-20T06:26:41;20.50;82.70
23147;DHT22;11742;53.532;-1.478;2023-08-20T06:29:27;20.50;82.90
23147;DHT22;11742;53.532;-1.478;2023-08-20T06:32:11;20.50;83.00
23147;DHT22;11742;53.532;-1.478;2023-08-20T06:34:55;20.50;83.30
23147;DHT22;11742;53.532;-1.478;2023-08-20T06:37:39;20.50;83.40
23147;DHT22;11742;53.532;-1.478;2023-08-20T06:40:24;20.50;83.50
23147;DHT22;11742;53.532;-1.478;2023-08-20T06:43:08;20.50;83.40
23147;DHT22;11742;53.532;-1.478;2023-08-20T06:45:52;20.50;83.50
23147;DHT22;11742;53.532;-1.478;2023-08-20T06:48:37;20.50;83.70
23147;DHT22;11742;53.532;-1.478;2023-08-20T06:51:21;20.60;83.70
23147;DHT22;11742;53.532;-1.478;2023-08-20T06:54:06;20.60;83.60
23147;DHT22;11742;53.532;-1.478;2023-08-20T06:56:51;20.60;83.80
23147;DHT22;11742;53.532;-1.478;2023-08-20T06:59:35;20.60;84.30
23147;DHT22;11742;53.532;-1.478;2023-08-20T07:02:19;20.60;84.70
23147;DHT22;11742;53.532;-1.478;2023-08-20T07:05:04;20.60;84.60
23147;DHT22;11742;53.532;-1.478;2023-08-20T07:07:48;20.60;84.50
23147;DHT22;11742;53.532;-1.478;2023-08-20T07:10:33;20.60;84.70
23147;DHT22;11742;53.532;-1.478;2023-08-20T07:13:17;20.60;85.00
23147;DHT22;11742;53.532;-1.478;2023-08-20T07:16:01;20.70;84.90
23147;DHT22;11742;53.532;-1.478;2023-08-20T07:18:46;20.70;85.00
23147;DHT22;11742;53.532;-1.478;2023-08-20T07:21:30;20.80;85.30
23147;DHT22;11742;53.532;-1.478;2023-08-20T07:24:14;20.80;85.50
23147;DHT22;11742;53.532;-1.478;2023-08-20T07:26:58;20.80;85.40
23147;DHT22;11742;53.532;-1.478;2023-08-20T07:29:45;20.90;85.60
23147;DHT22;11742;53.532;-1.478;2023-08-20T07:32:29;20.90;85.90
23147;DHT22;11742;53.532;-1.478;2023-08-20T07:35:13;21.00;86.70
23147;DHT22;11742;53.532;-1.478;2023-08-20T07:37:57;21.00;85.80
23147;DHT22;11742;53.532;-1.478;2023-08-20T07:40:41;21.10;85.90
23147;DHT22;11742;53.532;-1.478;2023-08-20T07:43:25;21.10;86.30
23147;DHT22;11742;53.532;-1.478;2023-08-20T07:46:10;21.20;86.30
23147;DHT22;11742;53.532;-1.478;2023-08-20T07:48:54;21.30;86.10
23147;DHT22;11742;53.532;-1.478;2023-08-20T07:51:38;21.30;86.00
23147;DHT22;11742;53.532;-1.478;2023-08-20T07:54:22;21.40;86.20
23147;DHT22;11742;53.532;-1.478;2023-08-20T07:57:06;21.40;86.30
23147;DHT22;11742;53.532;-1.478;2023-08-20T07:59:51;21.50;86.30
23147;DHT22;11742;53.532;-1.478;2023-08-20T08:02:35;21.60;86.00
23147;DHT22;11742;53.532;-1.478;2023-08-20T08:05:19;21.70;86.30
23147;DHT22;11742;53.532;-1.478;2023-08-20T08:08:04;21.80;86.80
23147;DHT22;11742;53.532;-1.478;2023-08-20T08:10:49;21.90;87.00
23147;DHT22;11742;53.532;-1.478;2023-08-20T08:13:33;21.90;87.00
23147;DHT22;11742;53.532;-1.478;2023-08-20T08:16:17;22.00;87.30
23147;DHT22;11742;53.532;-1.478;2023-08-20T08:19:01;22.10;87.30
23147;DHT22;11742;53.532;-1.478;2023-08-20T08:21:46;22.20;86.90
23147;DHT22;11742;53.532;-1.478;2023-08-20T08:24:31;22.30;86.70
23147;DHT22;11742;53.532;-1.478;2023-08-20T08:27:15;22.30;86.60
23147;DHT22;11742;53.532;-1.478;2023-08-20T08:29:59;22.40;86.80
23147;DHT22;11742;53.532;-1.478;2023-08-20T08:32:43;22.50;86.80
23147;DHT22;11742;53.532;-1.478;2023-08-20T08:35:27;22.60;86.90
23147;DHT22;11742;53.532;-1.478;2023-08-20T08:38:11;22.70;86.90
23147;DHT22;11742;53.532;-1.478;2023-08-20T08:40:55;22.70;86.80
23147;DHT22;11742;53.532;-1.478;2023-08-20T08:43:40;22.80;86.90
23147;DHT22;11742;53.532;-1.478;2023-08-20T08:46:25;22.90;87.00
23147;DHT22;11742;53.532;-1.478;2023-08-20T08:49:09;23.00;87.00
23147;DHT22;11742;53.532;-1.478;2023-08-20T08:51:54;23.10;87.10
23147;DHT22;11742;53.532;-1.478;2023-08-20T08:54:40;23.20;87.20
23147;DHT22;11742;53.532;-1.478;2023-08-20T08:57:25;23.30;87.20
23147;DHT22;11742;53.532;-1.478;2023-08-20T09:00:10;23.30;87.00
23147;DHT22;11742;53.532;-1.478;2023-08-20T09:02:54;23.40;86.90
23147;DHT22;11742;53.532;-1.478;2023-08-20T09:05:49;23.50;86.80
23147;DHT22;11742;53.532;-1.478;2023-08-20T09:08:33;23.50;86.70
23147;DHT22;11742;53.532;-1.478;2023-08-20T09:11:17;23.60;86.60
23147;DHT22;11742;53.532;-1.478;2023-08-20T09:14:01;23.70;86.60
23147;DHT22;11742;53.532;-1.478;2023-08-20T09:16:46;23.70;86.50
23147;DHT22;11742;53.532;-1.478;2023-08-20T09:19:35;23.70;86.40
23147;DHT22;11742;53.532;-1.478;2023-08-20T09:22:20;23.80;86.40
23147;DHT22;11742;53.532;-1.478;2023-08-20T09:25:04;23.90;86.50
23147;DHT22;11742;53.532;-1.478;2023-08-20T09:27:49;23.90;86.40
23147;DHT22;11742;53.532;-1.478;2023-08-20T09:30:33;24.00;86.40
23147;DHT22;11742;53.532;-1.478;2023-08-20T09:33:18;24.10;86.40
23147;DHT22;11742;53.532;-1.478;2023-08-20T09:36:07;24.10;86.40
23147;DHT22;11742;53.532;-1.478;2023-08-20T09:38:52;24.20;86.40
23147;DHT22;11742;53.532;-1.478;2023-08-20T09:41:36;24.20;86.50
23147;DHT22;11742;53.532;-1.478;2023-08-20T09:44:22;24.30;86.50
23147;DHT22;11742;53.532;-1.478;2023-08-20T09:47:09;24.40;86.50
23147;DHT22;11742;53.532;-1.478;2023-08-20T09:49:54;24.40;86.50
23147;DHT22;11742;53.532;-1.478;2023-08-20T09:53:03;24.50;87.40
23147;DHT22;11742;53.532;-1.478;2023-08-20T09:55:50;24.60;87.40
23147;DHT22;11742;53.532;-1.478;2023-08-20T09:58:39;24.70;86.50
23147;DHT22;11742;53.532;-1.478;2023-08-20T10:01:25;24.70;86.50
23147;DHT22;11742;53.532;-1.478;2023-08-20T10:04:10;24.80;86.60
23147;DHT22;11742;53.532;-1.478;2023-08-20T10:06:55;24.80;86.60
23147;DHT22;11742;53.532;-1.478;2023-08-20T10:09:43;24.90;86.60
23147;DHT22;11742;53.532;-1.478;2023-08-20T10:12:31;25.00;86.80
23147;DHT22;11742;53.532;-1.478;2023-08-20T10:15:16;25.00;86.60
23147;DHT22;11742;53.532;-1.478;2023-08-20T10:18:00;25.10;86.60
23147;DHT22;11742;53.532;-1.478;2023-08-20T10:20:44;25.20;86.60
23147;DHT22;11742;53.532;-1.478;2023-08-20T10:23:28;25.30;86.70
23147;DHT22;11742;53.532;-1.478;2023-08-20T10:26:14;25.40;86.80
23147;DHT22;11742;53.532;-1.478;2023-08-20T10:29:39;25.40;86.70
23147;DHT22;11742;53.532;-1.478;2023-08-20T10:35:31;25.60;86.50
23147;DHT22;11742;53.532;-1.478;2023-08-20T10:38:35;25.70;86.40
23147;DHT22;11742;53.532;-1.478;2023-08-20T10:41:27;25.80;86.30
23147;DHT22;11742;53.532;-1.478;2023-08-20T10:44:11;25.80;86.20
23147;DHT22;11742;53.532;-1.478;2023-08-20T10:46:56;25.90;86.10
23147;DHT22;11742;53.532;-1.478;2023-08-20T10:49:42;25.90;85.90
23147;DHT22;11742;53.532;-1.478;2023-08-20T10:52:27;26.00;85.50
23147;DHT22;11742;53.532;-1.478;2023-08-20T10:55:11;26.10;85.30
23147;DHT22;11742;53.532;-1.478;2023-08-20T10:57:57;26.10;83.80
23147;DHT22;11742;53.532;-1.478;2023-08-20T11:00:43;26.20;82.60
23147;DHT22;11742;53.532;-1.478;2023-08-20T11:03:27;26.20;81.60
23147;DHT22;11742;53.532;-1.478;2023-08-20T11:06:12;26.20;81.10
23147;DHT22;11742;53.532;-1.478;2023-08-20T11:08:56;26.30;80.90
23147;DHT22;11742;53.532;-1.478;2023-08-20T11:11:42;26.30;80.70
23147;DHT22;11742;53.532;-1.478;2023-08-20T11:14:27;26.30;80.90
23147;DHT22;11742;53.532;-1.478;2023-08-20T11:17:11;26.40;79.90
23147;DHT22;11742;53.532;-1.478;2023-08-20T11:19:55;26.30;79.80
23147;DHT22;11742;53.532;-1.478;2023-08-20T11:22:39;26.40;79.40
23147;DHT22;11742;53.532;-1.478;2023-08-20T11:25:24;26.40;78.50
23147;DHT22;11742;53.532;-1.478;2023-08-20T11:28:09;26.40;78.50
23147;DHT22;11742;53.532;-1.478;2023-08-20T11:30:53;26.40;78.70
23147;DHT22;11742;53.532;-1.478;2023-08-20T11:33:38;26.40;78.30
23147;DHT22;11742;53.532;-1.478;2023-08-20T11:36:23;26.40;78.80
23147;DHT22;11742;53.532;-1.478;2023-08-20T11:39:08;26.40;79.30
23147;DHT22;11742;53.532;-1.478;2023-08-20T11:41:52;26.40;78.00
23147;DHT22;11742;53.532;-1.478;2023-08-20T11:44:44;26.40;77.30
23147;DHT22;11742;53.532;-1.478;2023-08-20T11:47:29;26.40;77.00
23147;DHT22;11742;53.532;-1.478;2023-08-20T11:50:13;26.40;76.80
23147;DHT22;11742;53.532;-1.478;2023-08-20T11:52:57;26.40;77.80
23147;DHT22;11742;53.532;-1.478;2023-08-20T11:55:45;26.40;77.60
23147;DHT22;11742;53.532;-1.478;2023-08-20T11:58:29;26.40;77.50
23147;DHT22;11742;53.532;-1.478;2023-08-20T12:01:14;26.40;76.80
23147;DHT22;11742;53.532;-1.478;2023-08-20T12:04:07;26.40;76.30
23147;DHT22;11742;53.532;-1.478;2023-08-20T12:07:14;26.40;76.50
23147;DHT22;11742;53.532;-1.478;2023-08-20T12:09:58;26.40;76.70
23147;DHT22;11742;53.532;-1.478;2023-08-20T12:13:03;26.40;77.50
23147;DHT22;11742;53.532;-1.478;2023-08-20T12:15:47;26.40;78.00
23147;DHT22;11742;53.532;-1.478;2023-08-20T12:18:32;26.50;79.00
23147;DHT22;11742;53.532;-1.478;2023-08-20T12:21:16;26.50;77.70
23147;DHT22;11742;53.532;-1.478;2023-08-20T12:24:01;26.50;78.60
23147;DHT22;11742;53.532;-1.478;2023-08-20T12:26:45;26.60;78.80
23147;DHT22;11742;53.532;-1.478;2023-08-20T12:29:30;26.60;79.10
23147;DHT22;11742;53.532;-1.478;2023-08-20T12:32:14;26.60;79.10
23147;DHT22;11742;53.532;-1.478;2023-08-20T12:34:58;26.60;78.70
23147;DHT22;11742;53.532;-1.478;2023-08-20T12:37:43;26.70;77.40
23147;DHT22;11742;53.532;-1.478;2023-08-20T12:40:27;26.70;77.90
23147;DHT22;11742;53.532;-1.478;2023-08-20T12:43:11;26.80;77.70
23147;DHT22;11742;53.532;-1.478;2023-08-20T12:45:55;26.80;77.70
23147;DHT22;11742;53.532;-1.478;2023-08-20T12:48:40;26.90;77.20
23147;DHT22;11742;53.532;-1.478;2023-08-20T12:51:24;26.90;76.20
23147;DHT22;11742;53.532;-1.478;2023-08-20T12:54:08;27.00;76.30
23147;DHT22;11742;53.532;-1.478;2023-08-20T12:56:52;27.00;75.70
23147;DHT22;11742;53.532;-1.478;2023-08-20T12:59:37;27.00;77.60
23147;DHT22;11742;53.532;-1.478;2023-08-20T13:02:21;27.10;75.90
23147;DHT22;11742;53.532;-1.478;2023-08-20T13:05:06;27.10;76.70
23147;DHT22;11742;53.532;-1.478;2023-08-20T13:07:53;27.20;76.30
23147;DHT22;11742;53.532;-1.478;2023-08-20T13:10:40;27.20;76.20
23147;DHT22;11742;53.532;-1.478;2023-08-20T13:13:25;27.20;74.70
23147;DHT22;11742;53.532;-1.478;2023-08-20T13:16:10;27.20;74.30
23147;DHT22;11742;53.532;-1.478;2023-08-20T13:18:55;27.20;75.30
23147;DHT22;11742;53.532;-1.478;2023-08-20T13:21:39;27.30;76.20
23147;DHT22;11742;53.532;-1.478;2023-08-20T13:24:24;27.30;75.20
23147;DHT22;11742;53.532;-1.478;2023-08-20T13:27:08;27.30;74.50
23147;DHT22;11742;53.532;-1.478;2023-08-20T13:29:52;27.30;75.10
23147;DHT22;11742;53.532;-1.478;2023-08-20T13:32:37;27.30;75.60
23147;DHT22;11742;53.532;-1.478;2023-08-20T13:35:21;27.30;74.70
23147;DHT22;11742;53.532;-1.478;2023-08-20T13:38:07;27.30;74.30
23147;DHT22;11742;53.532;-1.478;2023-08-20T13:40:51;27.40;74.30
23147;DHT22;11742;53.532;-1.478;2023-08-20T13:43:35;27.40;73.70
23147;DHT22;11742;53.532;-1.478;2023-08-20T13:46:19;27.40;73.40
23147;DHT22;11742;53.532;-1.478;2023-08-20T13:49:03;27.40;73.80
23147;DHT22;11742;53.532;-1.478;2023-08-20T13:51:48;27.40;73.90
23147;DHT22;11742;53.532;-1.478;2023-08-20T13:54:32;27.40;73.90
23147;DHT22;11742;53.532;-1.478;2023-08-20T13:57:16;27.40;74.50
23147;DHT22;11742;53.532;-1.478;2023-08-20T14:00:00;27.50;75.20
23147;DHT22;11742;53.532;-1.478;2023-08-20T14:02:44;27.50;75.40
23147;DHT22;11742;53.532;-1.478;2023-08-20T14:05:29;27.50;75.50
23147;DHT22;11742;53.532;-1.478;2023-08-20T14:08:13;27.50;75.40
23147;DHT22;11742;53.532;-1.478;2023-08-20T14:10:57;27.60;75.60
23147;DHT22;11742;53.532;-1.478;2023-08-20T14:13:42;27.60;75.00
23147;DHT22;11742;53.532;-1.478;2023-08-20T14:16:26;27.60;74.10
23147;DHT22;11742;53.532;-1.478;2023-08-20T14:19:11;27.70;74.00
23147;DHT22;11742;53.532;-1.478;2023-08-20T14:21:56;27.70;73.50
23147;DHT22;11742;53.532;-1.478;2023-08-20T14:24:40;27.70;72.90
23147;DHT22;11742;53.532;-1.478;2023-08-20T14:27:24;27.70;72.90
23147;DHT22;11742;53.532;-1.478;2023-08-20T14:30:08;27.70;72.80
23147;DHT22;11742;53.532;-1.478;2023-08-20T14:32:53;27.70;73.00
23147;DHT22;11742;53.532;-1.478;2023-08-20T14:35:37;27.80;73.10
23147;DHT22;11742;53.532;-1.478;2023-08-20T14:38:22;27.70;72.90
23147;DHT22;11742;53.532;-1.478;2023-08-20T14:41:06;27.70;72.90
23147;DHT22;11742;53.532;-1.478;2023-08-20T14:43:50;27.70;72.90
23147;DHT22;11742;53.532;-1.478;2023-08-20T14:46:34;27.70;72.90
23147;DHT22;11742;53.532;-1.478;2023-08-20T14:49:18;27.70;73.00
23147;DHT22;11742;53.532;-1.478;2023-08-20T14:52:02;27.70;72.00
23147;DHT22;11742;53.532;-1.478;2023-08-20T14:54:48;27.70;72.00
23147;DHT22;11742;53.532;-1.478;2023-08-20T14:57:32;27.80;72.00
23147;DHT22;11742;53.532;-1.478;2023-08-20T15:00:17;27.80;72.30
23147;DHT22;11742;53.532;-1.478;2023-08-20T15:03:01;27.80;72.40
23147;DHT22;11742;53.532;-1.478;2023-08-20T15:05:47;27.80;72.30
23147;DHT22;11742;53.532;-1.478;2023-08-20T15:08:32;27.70;72.60
23147;DHT22;11742;53.532;-1.478;2023-08-20T15:11:16;27.80;73.00
23147;DHT22;11742;53.532;-1.478;2023-08-20T15:14:00;27.80;73.40
23147;DHT22;11742;53.532;-1.478;2023-08-20T15:16:45;27.80;73.70
23147;DHT22;11742;53.532;-1.478;2023-08-20T15:19:30;27.80;74.00
23147;DHT22;11742;53.532;-1.478;2023-08-20T15:22:14;27.80;73.90
23147;DHT22;11742;53.532;-1.478;2023-08-20T15:24:58;27.80;74.10
23147;DHT22;11742;53.532;-1.478;2023-08-20T15:27:43;27.70;74.30
23147;DHT22;11742;53.532;-1.478;2023-08-20T15:30:27;27.80;74.40
23147;DHT22;11742;53.532;-1.478;2023-08-20T15:33:11;27.80;74.00
23147;DHT22;11742;53.532;-1.478;2023-08-20T15:35:58;27.80;73.90
23147;DHT22;11742;53.532;-1.478;2023-08-20T15:38:43;27.80;74.00
23147;DHT22;11742;53.532;-1.478;2023-08-20T15:41:27;27.80;74.00
23147;DHT22;11742;53.532;-1.478;2023-08-20T15:44:12;27.80;73.90
23147;DHT22;11742;53.532;-1.478;2023-08-20T15:46:57;27.80;73.70
23147;DHT22;11742;53.532;-1.478;2023-08-20T15:49:41;27.90;73.60
23147;DHT22;11742;53.532;-1.478;2023-08-20T15:52:25;27.90;73.80
23147;DHT22;11742;53.532;-1.478;2023-08-20T15:55:09;27.90;73.70
23147;DHT22;11742;53.532;-1.478;2023-08-20T15:57:54;27.90;73.70
23147;DHT22;11742;53.532;-1.478;2023-08-20T16:00:38;27.90;73.50
23147;DHT22;11742;53.532;-1.478;2023-08-20T16:03:23;27.90;73.60
23147;DHT22;11742;53.532;-1.478;2023-08-20T16:06:07;27.90;73.90
23147;DHT22;11742;53.532;-1.478;2023-08-20T16:08:53;27.90;73.80
23147;DHT22;11742;53.532;-1.478;2023-08-20T16:11:37;27.90;73.60
23147;DHT22;11742;53.532;-1.478;2023-08-20T16:14:21;27.90;73.40
23147;DHT22;11742;53.532;-1.478;2023-08-20T16:17:07;28.00;73.50
23147;DHT22;11742;53.532;-1.478;2023-08-20T16:19:52;28.00;73.40
23147;DHT22;11742;53.532;-1.478;2023-08-20T16:22:37;28.00;73.30
23147;DHT22;11742;53.532;-1.478;2023-08-20T16:25:22;28.00;73.20
23147;DHT22;11742;53.532;-1.478;2023-08-20T16:28:06;28.00;72.60
23147;DHT22;11742;53.532;-1.478;2023-08-20T16:30:51;28.00;72.40
23147;DHT22;11742;53.532;-1.478;2023-08-20T16:33:36;28.00;72.50
23147;DHT22;11742;53.532;-1.478;2023-08-20T16:36:20;28.00;72.60
23147;DHT22;11742;53.532;-1.478;2023-08-20T16:39:04;28.10;72.40
23147;DHT22;11742;53.532;-1.478;2023-08-20T16:41:48;28.10;72.50
23147;DHT22;11742;53.532;-1.478;2023-08-20T16:44:32;28.10;72.40
23147;DHT22;11742;53.532;-1.478;2023-08-20T16:47:17;28.10;72.20
23147;DHT22;11742;53.532;-1.478;2023-08-20T16:50:01;28.10;72.10
23147;DHT22;11742;53.532;-1.478;2023-08-20T16:52:45;28.10;71.90
23147;DHT22;11742;53.532;-1.478;2023-08-20T16:55:29;28.10;71.70
23147;DHT22;11742;53.532;-1.478;2023-08-20T16:58:13;28.00;71.70
23147;DHT22;11742;53.532;-1.478;2023-08-20T17:00:58;28.00;71.90
23147;DHT22;11742;53.532;-1.478;2023-08-20T17:03:42;28.00;72.10
23147;DHT22;11742;53.532;-1.478;2023-08-20T17:06:28;28.00;72.10
23147;DHT22;11742;53.532;-1.478;2023-08-20T17:09:12;28.00;72.20
23147;DHT22;11742;53.532;-1.478;2023-08-20T17:11:57;28.00;72.00
23147;DHT22;11742;53.532;-1.478;2023-08-20T17:14:41;28.00;71.90